Time;durP1;ratioP1;P1;durP2;ratioP2;P2;SDS_P1;SDS_P2;PMS_P1;PMS_P2;Temp;Humidity;BMP_temperature;BMP_pressure;BME280_temperature;BME280_humidity;BME280_pressure;Samples;Min_cycle;Max_cycle;Signal;HPM_P1;HPM_P2
2023/07/09 00:00:18;;;;;;;10.00;5.40;;;24.50;99.90;;;;;;5027391;28;20029;-85
2023/07/09 00:02:45;;;;;;;9.48;5.18;;;24.50;99.90;;;;;;5028712;28;20048;-85
2023/07/09 00:05:16;;;;;;;10.60;5.45;;;24.50;99.90;;;;;;5027607;28;20037;-85
2023/07/09 00:07:44;;;;;;;10.85;4.82;;;24.50;99.90;;;;;;5026694;28;20025;-85
2023/07/09 00:10:15;;;;;;;12.40;5.35;;;24.40;99.90;;;;;;5026838;28;20033;-85
2023/07/09 00:12:41;;;;;;;6.75;4.93;;;24.30;99.90;;;;;;5028560;28;20025;-85
2023/07/09 00:15:09;;;;;;;8.40;5.95;;;24.30;99.90;;;;;;5026752;28;20951;-85
2023/07/09 00:17:35;;;;;;;6.72;4.70;;;24.30;99.90;;;;;;5024940;28;20021;-85
2023/07/09 00:20:11;;;;;;;7.53;5.68;;;24.20;99.90;;;;;;5028292;28;20026;-84
2023/07/09 00:22:37;;;;;;;10.13;4.95;;;24.20;99.90;;;;;;5022594;28;20071;-84
2023/07/09 00:25:04;;;;;;;10.18;5.30;;;24.20;99.90;;;;;;5025008;28;20076;-85
2023/07/09 00:27:30;;;;;;;10.45;5.43;;;24.20;99.90;;;;;;5029273;28;20029;-84
2023/07/09 00:29:56;;;;;;;10.63;5.65;;;24.10;99.90;;;;;;5026182;28;20033;-86
2023/07/09 00:32:22;;;;;;;8.85;5.63;;;24.10;99.90;;;;;;5028825;28;20049;-86
2023/07/09 00:34:50;;;;;;;12.25;5.75;;;24.00;99.90;;;;;;5026110;28;20028;-84
2023/07/09 00:37:21;;;;;;;11.52;4.95;;;23.90;99.90;;;;;;5031212;28;20104;-81
2023/07/09 00:39:50;;;;;;;13.73;5.87;;;23.90;99.90;;;;;;5032467;28;20113;-82
2023/07/09 00:42:17;;;;;;;9.45;5.40;;;23.90;99.90;;;;;;5026100;28;20099;-84
2023/07/09 00:44:51;;;;;;;7.50;5.30;;;23.90;99.90;;;;;;5032430;28;20061;-82
2023/07/09 00:47:34;;;;;;;8.13;4.60;;;23.80;99.90;;;;;;5033173;28;20036;-85
2023/07/09 00:50:17;;;;;;;12.90;5.28;;;23.80;99.90;;;;;;5031944;28;20033;-85
2023/07/09 00:52:54;;;;;;;8.40;5.03;;;23.70;99.90;;;;;;5045509;28;20044;-85
2023/07/09 00:55:25;;;;;;;11.52;5.90;;;23.70;99.90;;;;;;5030269;28;20053;-84
2023/07/09 00:57:56;;;;;;;9.68;5.20;;;23.60;99.90;;;;;;5032905;28;20108;-84
2023/07/09 01:00:27;;;;;;;11.87;6.17;;;23.60;99.90;;;;;;5030831;28;20113;-87
2023/07/09 01:02:53;;;;;;;9.52;5.63;;;23.50;99.90;;;;;;5031496;28;20354;-84
2023/07/09 01:05:19;;;;;;;9.88;5.47;;;23.50;99.90;;;;;;5029619;28;20044;-83
2023/07/09 01:07:46;;;;;;;10.02;6.15;;;23.40;99.90;;;;;;5029944;28;20037;-82
2023/07/09 01:10:18;;;;;;;8.75;5.00;;;23.40;99.90;;;;;;5029311;28;20112;-84
2023/07/09 01:12:45;;;;;;;11.55;6.18;;;23.40;99.90;;;;;;5030117;28;20087;-84
2023/07/09 01:15:11;;;;;;;8.45;5.88;;;23.30;99.90;;;;;;5048337;28;20037;-86
2023/07/09 01:17:40;;;;;;;7.68;5.63;;;23.30;99.90;;;;;;5030270;28;20500;-81
2023/07/09 01:20:08;;;;;;;7.57;4.88;;;23.20;99.90;;;;;;5029775;28;20182;-85
2023/07/09 01:22:36;;;;;;;8.60;4.72;;;23.10;99.90;;;;;;5028230;28;20033;-85
2023/07/09 01:25:07;;;;;;;10.73;5.57;;;23.10;99.90;;;;;;5029908;28;20025;-85
2023/07/09 01:27:34;;;;;;;9.98;5.80;;;23.10;99.90;;;;;;5029977;28;20072;-85
2023/07/09 01:30:04;;;;;;;8.38;5.32;;;23.00;99.90;;;;;;5032062;28;20033;-83
2023/07/09 01:32:29;;;;;;;8.18;5.45;;;23.00;99.90;;;;;;5028436;28;20523;-82
2023/07/09 01:35:04;;;;;;;7.40;5.60;;;23.00;99.90;;;;;;5028800;28;20116;-80
2023/07/09 01:37:30;;;;;;;9.77;5.55;;;23.00;99.90;;;;;;5029323;28;20061;-83
2023/07/09 01:39:56;;;;;;;8.75;5.22;;;23.00;99.90;;;;;;5031394;28;20025;-84
2023/07/09 01:42:24;;;;;;;7.53;5.47;;;22.90;99.90;;;;;;5028050;28;20033;-83
2023/07/09 01:44:53;;;;;;;9.05;5.68;;;22.90;99.90;;;;;;5030756;28;20026;-83
2023/07/09 01:47:19;;;;;;;9.90;6.03;;;22.90;99.90;;;;;;5029249;28;20029;-86
2023/07/09 01:49:49;;;;;;;14.45;5.38;;;22.90;99.90;;;;;;5028730;28;20386;-87
2023/07/09 01:52:19;;;;;;;12.90;5.40;;;22.80;99.90;;;;;;5030541;28;20113;-85
2023/07/09 01:54:49;;;;;;;10.98;5.97;;;22.80;99.90;;;;;;5028026;28;20030;-84
2023/07/09 01:57:14;;;;;;;12.57;5.85;;;22.80;99.90;;;;;;5028321;28;20021;-83
2023/07/09 01:59:41;;;;;;;8.45;5.20;;;22.70;99.90;;;;;;5025821;28;20021;-84
2023/07/09 02:02:15;;;;;;;15.98;6.90;;;22.70;99.90;;;;;;5028828;28;20022;-85
2023/07/09 02:04:42;;;;;;;14.68;5.68;;;22.70;99.90;;;;;;5027205;28;20119;-84
2023/07/09 02:07:08;;;;;;;10.23;5.65;;;22.70;99.90;;;;;;5030684;28;20481;-82
2023/07/09 02:09:36;;;;;;;13.38;6.20;;;22.70;99.90;;;;;;5029162;28;20025;-86
2023/07/09 02:12:02;;;;;;;8.40;5.03;;;22.70;99.90;;;;;;5030139;28;20032;-81
2023/07/09 02:14:30;;;;;;;9.90;5.45;;;22.70;99.90;;;;;;5029778;28;20367;-85
2023/07/09 02:16:55;;;;;;;13.05;6.05;;;22.70;99.90;;;;;;5030393;28;20026;-83
2023/07/09 02:19:21;;;;;;;9.38;6.28;;;22.60;99.90;;;;;;5031589;28;20031;-80
2023/07/09 02:21:47;;;;;;;11.35;5.80;;;22.60;99.90;;;;;;5031216;28;20056;-84
2023/07/09 02:24:15;;;;;;;9.70;5.40;;;22.60;99.90;;;;;;5031854;28;20103;-80
2023/07/09 02:26:40;;;;;;;7.82;5.47;;;22.50;99.90;;;;;;5035789;28;20029;-82
2023/07/09 02:29:08;;;;;;;13.27;5.72;;;22.50;99.90;;;;;;5030812;28;20032;-81
2023/07/09 02:31:34;;;;;;;8.60;5.55;;;22.40;99.90;;;;;;5032958;28;20080;-81
2023/07/09 02:34:00;;;;;;;13.10;6.10;;;22.40;99.90;;;;;;5031388;28;20061;-80
2023/07/09 02:36:25;;;;;;;11.60;5.78;;;22.40;99.90;;;;;;5033358;28;20449;-84
2023/07/09 02:38:51;;;;;;;10.07;6.47;;;22.30;99.90;;;;;;5036643;28;20028;-79
2023/07/09 02:41:17;;;;;;;11.93;5.95;;;22.30;99.90;;;;;;5032322;28;21652;-81
2023/07/09 02:43:44;;;;;;;11.02;5.97;;;22.30;99.90;;;;;;5037069;28;20037;-79
2023/07/09 02:46:10;;;;;;;13.73;6.10;;;22.30;99.90;;;;;;5038872;28;20025;-78
2023/07/09 02:48:38;;;;;;;8.07;5.45;;;22.20;99.90;;;;;;5040113;28;20041;-80
2023/07/09 02:51:03;;;;;;;11.10;5.43;;;22.20;99.90;;;;;;5039707;28;20389;-80
2023/07/09 02:53:31;;;;;;;8.73;5.20;;;22.10;99.90;;;;;;5044434;28;20033;-77
2023/07/09 02:55:59;;;;;;;10.80;5.65;;;22.10;99.90;;;;;;5037007;28;20029;-79
2023/07/09 02:58:24;;;;;;;9.30;5.38;;;22.10;99.90;;;;;;5045706;28;20018;-77
2023/07/09 03:00:53;;;;;;;10.65;5.60;;;22.10;99.90;;;;;;5039824;28;20196;-77
2023/07/09 03:03:22;;;;;;;10.88;5.90;;;22.10;99.90;;;;;;5063566;28;20029;-77
2023/07/09 03:05:48;;;;;;;10.65;5.47;;;22.10;99.90;;;;;;5043284;28;20025;-80
2023/07/09 03:08:14;;;;;;;14.00;5.90;;;22.00;99.90;;;;;;5039252;28;20045;-78
2023/07/09 03:10:40;;;;;;;13.25;5.88;;;22.00;99.90;;;;;;5042166;28;20064;-79
2023/07/09 03:13:06;;;;;;;10.10;6.07;;;22.00;99.90;;;;;;5041328;28;20089;-75
2023/07/09 03:15:35;;;;;;;8.63;5.70;;;22.00;99.90;;;;;;5042117;28;20033;-77
2023/07/09 03:18:01;;;;;;;9.75;5.78;;;21.90;99.90;;;;;;5046131;28;20041;-78
2023/07/09 03:20:27;;;;;;;10.43;5.10;;;21.90;99.90;;;;;;5041658;28;20060;-76
2023/07/09 03:22:52;;;;;;;11.25;5.65;;;21.90;99.90;;;;;;5046916;28;20037;-75
2023/07/09 03:25:20;;;;;;;11.60;5.40;;;21.90;99.90;;;;;;5039094;28;20521;-76
2023/07/09 03:27:49;;;;;;;12.07;5.82;;;21.90;99.90;;;;;;5048032;28;20041;-76
2023/07/09 03:30:15;;;;;;;12.75;5.88;;;21.90;99.90;;;;;;5039064;28;20038;-78
2023/07/09 03:32:42;;;;;;;10.73;5.63;;;21.90;99.90;;;;;;5041577;28;20033;-77
2023/07/09 03:35:08;;;;;;;13.63;5.65;;;21.90;99.90;;;;;;5037547;28;20060;-78
2023/07/09 03:37:34;;;;;;;7.53;5.00;;;21.80;99.90;;;;;;5037392;28;20051;-77
2023/07/09 03:40:00;;;;;;;8.77;5.53;;;21.90;99.90;;;;;;5045542;28;20030;-77
2023/07/09 03:42:25;;;;;;;12.90;5.53;;;21.80;99.90;;;;;;5042309;28;20022;-77
2023/07/09 03:44:51;;;;;;;8.88;5.65;;;21.80;99.90;;;;;;5042125;28;20103;-78
2023/07/09 03:47:18;;;;;;;9.65;5.80;;;21.80;99.90;;;;;;5047548;28;20033;-77
2023/07/09 03:49:43;;;;;;;11.90;6.03;;;21.80;99.90;;;;;;5043085;28;20144;-76
2023/07/09 03:52:09;;;;;;;9.52;5.63;;;21.80;99.90;;;;;;5046167;28;20022;-77
2023/07/09 03:54:35;;;;;;;12.60;5.32;;;21.80;99.90;;;;;;5043242;28;20037;-75
2023/07/09 03:57:00;;;;;;;9.90;5.45;;;21.70;99.90;;;;;;5047484;28;20037;-75
2023/07/09 03:59:28;;;;;;;9.63;5.60;;;21.70;99.90;;;;;;5045190;28;21148;-76
2023/07/09 04:01:54;;;;;;;8.02;4.68;;;21.70;99.90;;;;;;5044769;28;20041;-75
2023/07/09 04:04:20;;;;;;;9.52;5.32;;;21.70;99.90;;;;;;5039833;28;20037;-77
2023/07/09 04:06:46;;;;;;;14.75;5.75;;;21.70;99.90;;;;;;5046660;28;20029;-76
2023/07/09 04:09:12;;;;;;;12.50;5.63;;;21.80;99.90;;;;;;5043241;28;20029;-78
2023/07/09 04:11:37;;;;;;;8.38;5.25;;;21.70;99.90;;;;;;5044785;28;20060;-77
2023/07/09 04:14:03;;;;;;;9.07;5.13;;;21.70;99.90;;;;;;5043654;28;20045;-81
2023/07/09 04:16:29;;;;;;;10.60;5.38;;;21.70;99.90;;;;;;5049385;28;20642;-76
2023/07/09 04:18:56;;;;;;;9.88;5.65;;;21.70;99.90;;;;;;5043267;28;20978;-79
2023/07/09 04:21:25;;;;;;;14.82;5.95;;;21.80;99.90;;;;;;5046029;28;20030;-79
2023/07/09 04:23:52;;;;;;;12.57;5.72;;;21.80;99.90;;;;;;5046233;28;20052;-79
2023/07/09 04:26:18;;;;;;;9.63;5.13;;;21.70;99.90;;;;;;5046426;28;20022;-80
2023/07/09 04:28:43;;;;;;;15.77;5.43;;;21.80;99.90;;;;;;5045134;28;20617;-80
2023/07/09 04:31:09;;;;;;;10.95;5.47;;;21.80;99.90;;;;;;5042238;28;20097;-81
2023/07/09 04:33:35;;;;;;;9.02;5.25;;;21.80;99.90;;;;;;5044671;28;20500;-80
2023/07/09 04:36:06;;;;;;;11.95;5.20;;;21.80;99.90;;;;;;5042763;28;20124;-79
2023/07/09 04:38:32;;;;;;;7.93;5.22;;;21.80;99.90;;;;;;5039627;28;20045;-80
2023/07/09 04:40:57;;;;;;;9.65;4.75;;;21.90;99.90;;;;;;5037894;28;20029;-80
2023/07/09 04:43:25;;;;;;;8.50;5.15;;;21.90;99.90;;;;;;5034452;28;20033;-81
2023/07/09 04:45:50;;;;;;;9.20;5.20;;;21.90;99.90;;;;;;5035834;28;20025;-80
2023/07/09 04:48:16;;;;;;;10.73;4.38;;;21.90;99.90;;;;;;5035686;28;21687;-82
2023/07/09 04:50:41;;;;;;;8.00;4.82;;;21.90;99.90;;;;;;5035863;28;20034;-78
2023/07/09 04:53:07;;;;;;;9.55;4.88;;;21.90;99.90;;;;;;5032442;28;20116;-81
2023/07/09 04:55:33;;;;;;;8.73;4.80;;;21.90;99.90;;;;;;5033616;28;20907;-81
2023/07/09 04:57:58;;;;;;;8.65;4.88;;;22.00;99.90;;;;;;5031052;28;20052;-83
2023/07/09 05:00:26;;;;;;;8.50;4.72;;;22.00;99.90;;;;;;5033602;28;20021;-79
2023/07/09 05:02:52;;;;;;;9.48;4.78;;;22.00;99.90;;;;;;5032518;28;20037;-82
2023/07/09 05:05:17;;;;;;;11.52;4.82;;;22.00;99.90;;;;;;5031855;28;20041;-83
2023/07/09 05:07:43;;;;;;;10.90;4.60;;;22.10;99.90;;;;;;5028726;28;20040;-79
2023/07/09 05:10:09;;;;;;;8.85;4.53;;;22.10;99.90;;;;;;5028810;28;20037;-83
2023/07/09 05:12:34;;;;;;;8.32;4.47;;;22.20;99.90;;;;;;5028816;28;20095;-81
2023/07/09 05:15:00;;;;;;;9.73;4.50;;;22.20;99.90;;;;;;5031727;28;20025;-87
2023/07/09 05:17:26;;;;;;;177.07;103.55;;;22.30;99.90;;;;;;5027403;28;20025;-82
2023/07/09 05:19:51;;;;;;;20.85;12.63;;;22.30;99.90;;;;;;5029301;28;20040;-82
2023/07/09 05:22:19;;;;;;;18.63;12.10;;;22.40;99.90;;;;;;5027321;28;20025;-82
2023/07/09 05:24:45;;;;;;;13.80;6.05;;;22.40;99.90;;;;;;5028040;28;20466;-85
2023/07/09 05:27:11;;;;;;;8.57;4.55;;;22.50;99.90;;;;;;5029345;28;20033;-82
2023/07/09 05:29:36;;;;;;;9.30;4.88;;;22.50;99.90;;;;;;5030540;28;20044;-84
2023/07/09 05:32:02;;;;;;;7.40;4.32;;;22.60;99.90;;;;;;5030950;28;20036;-84
2023/07/09 05:34:28;;;;;;;10.40;4.70;;;22.60;99.90;;;;;;5030835;28;20045;-84
2023/07/09 05:36:53;;;;;;;6.22;4.15;;;22.70;99.90;;;;;;5028046;28;20025;-84
2023/07/09 05:39:21;;;;;;;10.40;4.25;;;22.70;99.90;;;;;;5029224;28;20041;-85
2023/07/09 05:41:47;;;;;;;10.63;4.53;;;22.70;99.90;;;;;;5028286;28;20071;-85
2023/07/09 05:44:12;;;;;;;9.15;5.00;;;22.80;99.90;;;;;;5027191;28;20126;-85
2023/07/09 05:46:38;;;;;;;6.18;4.40;;;22.80;99.90;;;;;;5029303;28;20160;-83
2023/07/09 05:49:05;;;;;;;7.35;4.60;;;22.80;99.90;;;;;;5028005;28;20029;-85
2023/07/09 05:51:33;;;;;;;8.50;4.65;;;22.90;99.90;;;;;;5030390;28;20527;-82
2023/07/09 05:53:58;;;;;;;10.38;5.32;;;23.00;99.90;;;;;;5029615;28;20040;-84
2023/07/09 05:56:27;;;;;;;9.88;4.70;;;23.00;99.90;;;;;;5029035;28;20025;-84
2023/07/09 05:58:52;;;;;;;9.27;4.30;;;23.00;99.90;;;;;;5026584;28;20076;-84
2023/07/09 06:01:20;;;;;;;8.68;4.82;;;23.10;99.90;;;;;;5029814;28;20029;-86
2023/07/09 06:03:46;;;;;;;6.95;4.45;;;23.10;99.90;;;;;;5029291;28;20017;-84
2023/07/09 06:06:12;;;;;;;7.93;4.45;;;23.20;99.90;;;;;;5026710;28;20030;-86
2023/07/09 06:08:38;;;;;;;11.73;4.82;;;23.20;99.90;;;;;;5029164;28;20478;-85
2023/07/09 06:11:03;;;;;;;9.30;4.75;;;23.30;99.90;;;;;;5030813;28;20088;-81
2023/07/09 06:13:33;;;;;;;8.73;4.25;;;23.40;99.90;;;;;;5026579;28;20039;-86
2023/07/09 06:16:02;;;;;;;8.48;4.60;;;23.40;99.90;;;;;;5028963;28;20030;-84
2023/07/09 06:18:29;;;;;;;9.93;5.25;;;23.50;99.90;;;;;;5028306;28;20021;-81
2023/07/09 06:20:57;;;;;;;10.07;5.05;;;23.50;99.90;;;;;;5029352;28;20025;-79
2023/07/09 06:23:23;;;;;;;26.35;17.70;;;23.60;99.90;;;;;;5024093;28;20025;-83
2023/07/09 06:25:48;;;;;;;9.15;5.70;;;23.60;99.90;;;;;;5027165;28;20335;-83
2023/07/09 06:28:26;;;;;;;8.52;4.60;;;23.70;99.90;;;;;;5028687;28;20034;-85
2023/07/09 06:30:52;;;;;;;9.02;4.50;;;23.80;99.90;;;;;;5030089;28;20029;-85
2023/07/09 06:33:22;;;;;;;8.20;4.47;;;23.90;99.90;;;;;;5028320;28;20171;-85
2023/07/09 06:35:57;;;;;;;13.32;6.00;;;24.00;99.90;;;;;;5046298;28;21772;-86
2023/07/09 06:38:22;;;;;;;8.27;4.53;;;24.10;99.90;;;;;;5029202;28;20521;-85
2023/07/09 06:40:49;;;;;;;12.38;5.03;;;24.10;99.90;;;;;;5029980;28;20117;-85
2023/07/09 06:43:14;;;;;;;6.43;4.20;;;24.20;99.90;;;;;;5027009;28;20040;-85
2023/07/09 06:45:49;;;;;;;8.80;4.32;;;24.20;99.90;;;;;;5029093;28;20029;-83
2023/07/09 06:48:14;;;;;;;8.40;4.13;;;24.20;99.90;;;;;;5029533;28;20033;-83
2023/07/09 06:50:40;;;;;;;7.07;4.30;;;24.30;99.90;;;;;;5028870;28;20402;-86
2023/07/09 06:53:05;;;;;;;7.40;4.35;;;24.30;99.90;;;;;;5028453;28;20022;-82
2023/07/09 06:55:31;;;;;;;11.23;4.90;;;24.40;99.90;;;;;;5026786;28;20041;-85
2023/07/09 06:57:57;;;;;;;6.07;4.43;;;24.40;99.90;;;;;;5027321;28;20026;-84
2023/07/09 07:00:23;;;;;;;6.28;4.38;;;24.50;99.90;;;;;;5026747;28;20025;-85
2023/07/09 07:02:51;;;;;;;8.45;4.40;;;24.50;99.90;;;;;;5027756;28;20040;-85
2023/07/09 07:05:17;;;;;;;9.48;4.90;;;24.50;99.90;;;;;;5026078;28;20037;-85
2023/07/09 07:07:44;;;;;;;6.95;5.15;;;24.60;99.90;;;;;;5029686;28;20143;-84
2023/07/09 07:10:10;;;;;;;9.90;4.70;;;24.70;99.90;;;;;;5027509;28;20021;-84
2023/07/09 07:12:47;;;;;;;13.15;4.57;;;24.80;99.90;;;;;;5024624;28;20036;-84
2023/07/09 07:15:15;;;;;;;8.85;4.30;;;24.80;99.90;;;;;;5030132;28;20036;-84
2023/07/09 07:17:41;;;;;;;6.68;4.60;;;24.90;99.90;;;;;;5028964;28;20026;-85
2023/07/09 07:20:08;;;;;;;7.45;5.60;;;24.90;99.90;;;;;;5026890;28;20032;-84
2023/07/09 07:22:34;;;;;;;12.27;5.05;;;25.00;99.90;;;;;;5029272;28;20021;-84
2023/07/09 07:25:00;;;;;;;9.75;4.15;;;25.00;99.90;;;;;;5027937;28;20036;-82
2023/07/09 07:27:25;;;;;;;15.70;4.15;;;25.10;99.90;;;;;;5023521;28;20439;-83
2023/07/09 07:29:51;;;;;;;6.50;4.18;;;25.20;99.90;;;;;;5023178;28;20048;-81
2023/07/09 07:32:17;;;;;;;8.88;4.30;;;25.20;99.90;;;;;;5025414;28;20030;-81
2023/07/09 07:34:42;;;;;;;6.85;4.00;;;25.30;99.90;;;;;;5023188;28;20453;-86
2023/07/09 07:37:08;;;;;;;8.35;4.28;;;25.40;99.90;;;;;;5026003;28;20265;-84
2023/07/09 07:39:33;;;;;;;8.73;4.40;;;25.40;99.90;;;;;;5024720;28;20037;-80
2023/07/09 07:42:01;;;;;;;8.40;5.65;;;25.40;99.90;;;;;;5024625;28;20028;-80
2023/07/09 07:44:27;;;;;;;11.77;5.50;;;25.40;99.90;;;;;;5028386;28;20041;-82
2023/07/09 07:46:52;;;;;;;7.53;4.35;;;25.50;99.90;;;;;;5025872;28;20029;-81
2023/07/09 07:49:18;;;;;;;6.80;4.13;;;25.50;99.90;;;;;;5023322;28;20468;-83
2023/07/09 07:51:44;;;;;;;10.57;4.55;;;25.60;99.90;;;;;;5027435;28;20029;-82
2023/07/09 07:54:10;;;;;;;10.55;5.03;;;25.60;99.90;;;;;;5026285;28;20059;-91
2023/07/09 07:56:36;;;;;;;6.72;4.20;;;25.70;99.90;;;;;;5025917;28;20457;-86
2023/07/09 07:59:03;;;;;;;10.35;5.30;;;25.80;99.90;;;;;;5025936;28;20041;-85
2023/07/09 08:01:28;;;;;;;11.90;5.30;;;25.80;99.90;;;;;;5027536;28;20096;-83
2023/07/09 08:03:54;;;;;;;11.82;5.00;;;25.80;99.90;;;;;;5027440;28;20066;-88
2023/07/09 08:06:21;;;;;;;8.18;4.15;;;25.80;99.90;;;;;;5027280;28;20037;-87
2023/07/09 08:08:49;;;;;;;6.65;4.22;;;25.90;99.90;;;;;;5029063;28;20029;-89
2023/07/09 08:11:14;;;;;;;8.65;4.07;;;25.90;99.90;;;;;;5028479;28;20056;-88
2023/07/09 08:13:43;;;;;;;5.68;4.05;;;26.00;99.90;;;;;;5027665;28;20061;-89
2023/07/09 08:16:11;;;;;;;7.00;3.83;;;26.00;99.90;;;;;;5026899;28;20117;-83
2023/07/09 08:18:37;;;;;;;10.88;5.50;;;26.10;99.90;;;;;;5028332;28;20025;-90
2023/07/09 08:21:03;;;;;;;6.70;4.30;;;26.20;99.90;;;;;;5030008;28;20032;-86
2023/07/09 08:23:29;;;;;;;11.48;4.63;;;26.30;99.90;;;;;;5026309;28;20034;-87
2023/07/09 08:26:01;;;;;;;11.25;4.57;;;26.30;99.90;;;;;;5027129;28;20091;-86
2023/07/09 08:28:27;;;;;;;6.15;4.28;;;26.40;99.90;;;;;;5027159;28;20029;-86
2023/07/09 08:30:53;;;;;;;8.00;4.63;;;26.60;99.90;;;;;;5030799;28;20334;-87
2023/07/09 08:33:19;;;;;;;7.68;5.05;;;26.70;99.90;;;;;;5026954;28;20026;-88
2023/07/09 08:35:45;;;;;;;10.35;4.50;;;26.70;99.90;;;;;;5029062;28;20461;-84
2023/07/09 08:38:13;;;;;;;13.20;7.75;;;26.70;99.90;;;;;;5026015;28;20695;-85
2023/07/09 08:40:41;;;;;;;8.07;5.68;;;26.70;99.90;;;;;;5026058;28;20082;-84
2023/07/09 08:43:19;;;;;;;6.75;4.30;;;26.70;99.90;;;;;;5027466;28;20053;-85
2023/07/09 08:45:56;;;;;;;8.95;4.40;;;26.80;99.90;;;;;;5030184;28;20037;-87
2023/07/09 08:48:39;;;;;;;14.65;4.95;;;26.90;99.90;;;;;;5043644;28;20041;-90
2023/07/09 08:51:33;;;;;;;12.20;3.88;;;27.00;99.90;;;;;;5029812;28;20075;-91
2023/07/09 08:54:00;;;;;;;7.15;4.30;;;27.10;99.90;;;;;;5030979;28;20045;-89
2023/07/09 08:56:30;;;;;;;16.83;4.88;;;27.20;99.90;;;;;;5027493;28;20018;-89
2023/07/09 08:59:02;;;;;;;9.32;3.90;;;27.40;99.90;;;;;;5032771;28;20465;-85
2023/07/09 09:01:34;;;;;;;7.57;3.85;;;27.40;99.90;;;;;;5032951;28;20033;-84
2023/07/09 09:04:24;;;;;;;11.85;3.55;;;27.60;99.90;;;;;;5031960;28;20037;-86
2023/07/09 09:07:10;;;;;;;8.90;4.07;;;27.60;99.90;;;;;;5033729;28;20030;-86
2023/07/09 09:09:47;;;;;;;5.15;4.05;;;27.70;99.90;;;;;;5030508;28;20104;-87
2023/07/09 09:12:18;;;;;;;11.30;3.92;;;27.80;99.90;;;;;;5036195;28;20087;-89
2023/07/09 09:14:56;;;;;;;6.88;3.85;;;27.80;99.90;;;;;;5033040;28;20065;-89
2023/07/09 09:17:29;;;;;;;8.48;4.00;;;27.80;99.90;;;;;;5033991;28;20076;-86
2023/07/09 09:20:19;;;;;;;9.55;3.92;;;27.90;99.90;;;;;;5029315;28;21781;-86
2023/07/09 09:22:47;;;;;;;6.45;4.28;;;27.90;99.90;;;;;;5034357;28;20093;-88
2023/07/09 09:25:30;;;;;;;8.40;4.05;;;28.00;99.90;;;;;;5034022;28;20091;-87
2023/07/09 09:27:56;;;;;;;10.75;3.97;;;28.10;99.90;;;;;;5032248;28;20079;-87
2023/07/09 09:30:24;;;;;;;8.02;3.78;;;28.00;99.90;;;;;;5035089;28;20033;-89
2023/07/09 09:32:57;;;;;;;7.53;4.20;;;28.10;99.90;;;;;;5032779;28;20030;-87
2023/07/09 09:35:33;;;;;;;7.00;4.32;;;28.20;99.90;;;;;;5023837;28;20041;-89
2023/07/09 09:38:00;;;;;;;7.63;4.40;;;28.20;99.90;;;;;;5034938;28;20454;-85
2023/07/09 09:40:29;;;;;;;5.47;4.00;;;28.30;99.90;;;;;;5034178;28;20036;-87
2023/07/09 09:42:57;;;;;;;5.88;3.97;;;28.40;99.90;;;;;;5033807;28;20029;-85
2023/07/09 09:45:34;;;;;;;9.43;3.60;;;28.40;99.90;;;;;;5032133;28;21646;-82
2023/07/09 09:48:01;;;;;;;61.92;9.10;;;28.40;99.90;;;;;;5033746;28;20037;-85
2023/07/09 09:50:31;;;;;;;20.30;12.32;;;28.40;99.90;;;;;;5033437;28;20025;-86
2023/07/09 09:52:58;;;;;;;23.33;11.23;;;28.50;99.90;;;;;;5033180;28;20033;-84
2023/07/09 09:55:28;;;;;;;22.85;7.90;;;28.60;99.90;;;;;;5031811;28;20029;-83
2023/07/09 09:57:54;;;;;;;9.95;4.15;;;28.70;99.90;;;;;;5050050;28;20474;-83
2023/07/09 10:00:24;;;;;;;7.75;4.22;;;28.80;99.90;;;;;;5033879;28;20429;-82
2023/07/09 10:02:56;;;;;;;14.70;5.65;;;28.80;99.90;;;;;;5032438;28;20037;-88
2023/07/09 10:05:36;;;;;;;12.30;4.43;;;28.90;99.90;;;;;;5033350;28;20018;-86
2023/07/09 10:08:39;;;;;;;10.48;4.25;;;28.90;99.90;;;;;;5032423;28;20096;-83
2023/07/09 10:11:28;;;;;;;10.25;4.78;;;28.90;99.90;;;;;;5032787;28;20040;-84
2023/07/09 10:13:58;;;;;;;8.82;4.13;;;29.00;99.90;;;;;;5034005;28;20068;-88
2023/07/09 10:16:58;;;;;;;7.28;4.82;;;29.00;99.90;;;;;;5032532;28;20131;-87
2023/07/09 10:19:54;;;;;;;13.45;4.47;;;29.10;99.90;;;;;;5019641;28;20168;-85
2023/07/09 10:23:02;;;;;;;7.55;4.28;;;29.30;99.90;;;;;;5032022;28;20021;-87
2023/07/09 10:25:37;;;;;;;8.30;3.92;;;29.40;99.90;;;;;;5017774;28;21618;-83
2023/07/09 10:28:24;;;;;;;18.95;4.63;;;29.50;99.40;;;;;;5031241;28;20037;-86
2023/07/09 10:31:16;;;;;;;7.68;4.15;;;29.60;99.30;;;;;;5031491;28;20025;-85
2023/07/09 10:33:53;;;;;;;;;;;29.70;99.20;;;;;;5033339;28;20108;-84
2023/07/09 10:36:40;;;;;;;13.63;8.75;;;29.80;98.60;;;;;;5033348;28;19920;-87
2023/07/09 10:39:31;;;;;;;9.57;4.20;;;29.80;98.20;;;;;;5031786;28;20061;-86
2023/07/09 10:42:32;;;;;;;12.60;4.03;;;29.90;97.90;;;;;;5033654;28;20021;-86
2023/07/09 10:45:13;;;;;;;5.30;4.13;;;30.00;97.80;;;;;;5047308;28;20056;-84
2023/07/09 10:47:46;;;;;;;11.85;4.38;;;30.10;97.70;;;;;;5028851;28;20179;-85
2023/07/09 10:50:39;;;;;;;7.00;3.75;;;30.20;97.30;;;;;;5032344;28;20030;-84
2023/07/09 10:53:23;;;;;;;8.38;4.15;;;30.30;96.40;;;;;;5031663;28;20036;-86
2023/07/09 10:56:04;;;;;;;11.80;4.68;;;30.40;95.80;;;;;;5046870;28;20045;-86
2023/07/09 10:58:29;;;;;;;11.18;3.75;;;30.50;95.50;;;;;;5031749;28;20033;-83
2023/07/09 11:01:15;;;;;;;13.82;5.07;;;30.70;94.30;;;;;;5032474;28;20037;-84
2023/07/09 11:03:47;;;;;;;10.63;4.60;;;30.90;94.00;;;;;;5030968;28;20116;-83
2023/07/09 11:06:35;;;;;;;10.50;3.92;;;31.00;93.70;;;;;;5028095;28;20029;-85
2023/07/09 11:09:39;;;;;;;5.47;3.60;;;31.00;93.40;;;;;;5031244;28;20417;-84
2023/07/09 11:12:19;;;;;;;9.73;4.68;;;31.00;92.20;;;;;;5047479;28;20045;-87
2023/07/09 11:14:53;;;;;;;9.38;4.00;;;31.10;91.90;;;;;;5029472;28;20561;-85
2023/07/09 11:17:21;;;;;;;7.80;4.05;;;31.20;91.50;;;;;;5046255;28;20043;-86
2023/07/09 11:19:53;;;;;;;10.90;4.65;;;31.40;91.20;;;;;;5029512;28;20036;-85
2023/07/09 11:22:37;;;;;;;6.45;3.92;;;31.50;91.00;;;;;;5028249;28;20024;-84
2023/07/09 11:25:09;;;;;;;5.78;3.75;;;31.60;90.40;;;;;;5031127;28;20052;-86
2023/07/09 11:27:52;;;;;;;5.15;3.72;;;31.80;86.80;;;;;;5030522;28;20026;-86
2023/07/09 11:30:28;;;;;;;6.95;3.60;;;31.90;87.70;;;;;;5031091;28;20025;-86
2023/07/09 11:32:58;;;;;;;7.30;4.75;;;31.90;88.30;;;;;;5030636;28;20449;-84
2023/07/09 11:35:29;;;;;;;8.57;3.80;;;32.10;86.40;;;;;;5031544;28;20032;-86
2023/07/09 11:37:55;;;;;;;7.85;3.83;;;32.20;86.80;;;;;;5030971;28;20808;-85
2023/07/09 11:40:22;;;;;;;8.52;3.53;;;32.30;85.40;;;;;;5029738;28;20116;-85
2023/07/09 11:42:59;;;;;;;11.07;4.55;;;32.40;84.90;;;;;;5047549;28;20453;-84
2023/07/09 11:45:30;;;;;;;7.15;4.13;;;32.50;82.60;;;;;;5030649;28;20022;-85
2023/07/09 11:48:05;;;;;;;;;;;32.70;82.70;;;;;;5028699;28;20032;-84
2023/07/09 11:50:47;;;;;;;10.07;4.05;;;32.80;82.50;;;;;;5030248;28;20039;-85
2023/07/09 11:53:16;;;;;;;8.15;3.65;;;32.90;80.60;;;;;;5030369;28;20025;-84
2023/07/09 11:55:44;;;;;;;6.53;3.70;;;33.10;80.20;;;;;;5029576;28;20079;-82
2023/07/09 11:58:16;;;;;;;7.85;3.95;;;33.10;80.00;;;;;;5046359;28;20033;-85
2023/07/09 12:00:42;;;;;;;;;;;33.10;78.20;;;;;;5029370;28;20029;-84
2023/07/09 12:03:19;;;;;;;9.32;3.95;;;33.10;75.20;;;;;;5029618;28;19913;-83
2023/07/09 12:05:53;;;;;;;10.68;3.83;;;33.00;76.00;;;;;;5028983;28;20037;-85
2023/07/09 12:08:28;;;;;;;7.05;3.53;;;33.40;74.10;;;;;;5029734;28;20029;-85
2023/07/09 12:10:54;;;;;;;5.68;3.75;;;33.40;72.30;;;;;;5022913;28;20033;-86
2023/07/09 12:13:22;;;;;;;11.73;3.55;;;33.40;72.00;;;;;;5028047;28;20426;-85
2023/07/09 12:15:47;;;;;;;7.53;3.72;;;33.40;71.80;;;;;;5031378;28;20037;-85
2023/07/09 12:18:15;;;;;;;6.18;3.42;;;33.50;71.30;;;;;;5030669;28;20044;-85
2023/07/09 12:20:47;;;;;;;7.97;3.15;;;33.50;69.60;;;;;;5046726;28;20037;-85
2023/07/09 12:23:23;;;;;;;5.22;3.40;;;33.60;66.10;;;;;;5029255;28;20029;-83
2023/07/09 12:25:51;;;;;;;8.73;4.00;;;33.70;67.00;;;;;;5027681;28;20052;-84
2023/07/09 12:28:21;;;;;;;5.63;2.90;;;33.80;65.00;;;;;;5029587;28;20080;-85
2023/07/09 12:30:48;;;;;;;6.28;3.28;;;33.90;65.90;;;;;;5029678;28;20057;-85
2023/07/09 12:33:19;;;;;;;7.53;3.05;;;34.10;64.70;;;;;;5031293;28;20064;-85
2023/07/09 12:35:46;;;;;;;7.30;3.70;;;34.20;63.90;;;;;;5033460;28;20458;-85
2023/07/09 12:38:23;;;;;;;11.48;4.75;;;34.30;63.50;;;;;;5031861;28;20030;-85
2023/07/09 12:40:50;;;;;;;6.55;3.13;;;34.30;63.40;;;;;;5032995;28;20025;-84
2023/07/09 12:43:25;;;;;;;7.03;3.70;;;34.20;62.40;;;;;;5032726;28;20037;-85
2023/07/09 12:45:51;;;;;;;7.05;3.55;;;34.10;63.30;;;;;;5032597;28;20037;-83
2023/07/09 12:48:18;;;;;;;7.38;3.47;;;34.10;63.40;;;;;;5032747;28;20029;-84
2023/07/09 12:50:50;;;;;;;8.52;3.40;;;34.00;64.00;;;;;;5033010;28;20060;-83
2023/07/09 12:53:17;;;;;;;;;;;33.90;63.10;;;;;;5035097;28;20029;-85
2023/07/09 12:55:45;;;;;;;5.22;3.53;;;33.70;63.00;;;;;;5033136;28;21525;-84